Costa Rican Star — A8KK4 — position and weather

sailwx.info

Track history (hours):
 
Tides and Currents Weather Stations Pressure Air Temp Water Temp Dewpoint Dewpoint Depression Visibility Wind Speed Wind Dir Waves Ship Positions

Costa Rican Star

Last reported at 2018-Jan-10 08:33 UTC. Time now 2018-Jan-20 15:26 UTC.
Position N 27°34' W 015°16'.
Warning: this ship's position is 10 days out of date.

Length 185 m; draft 7.9 m.

Type: Cargo ship. MMSI: 636013073.

Date/timePositionNaut miles runAvg speedWind from/ knotsBaromVisibWave heightAir tempDewpointWater temp
2018-Jan-10 08:33N 27°34' W 015°16'217.0
2018-Jan-10 08:27N 27°35' W 015°15'716.7
2018-Jan-10 08:00N 27°42' W 015°12'816.5
2018-Jan-10 07:31N 27°50' W 015°09'816.9
2018-Jan-10 07:01N 27°58' W 015°05'816.9
2018-Jan-10 06:31N 28°06' W 015°02'816.6
2018-Jan-10 06:01N 28°13' W 014°58'816.4
2018-Jan-10 05:31N 28°21' W 014°55'816.6
2018-Jan-10 05:00N 28°29' W 014°52'816.8
2018-Jan-10 04:30N 28°37' W 014°50'816.8
2018-Jan-10 04:00N 28°45' W 014°47'816.8
2018-Jan-10 03:30N 28°53' W 014°45'  
2018-Jan-06 14:39N 49°43' W 003°34'317.3
2018-Jan-06 14:30N 49°44' W 003°31'917.2
2018-Jan-06 14:00N 49°48' W 003°19'816.6
2018-Jan-06 13:30N 49°53' W 003°08'815.9
2018-Jan-06 13:00N 49°57' W 002°57'815.0
2018-Jan-06 12:30N 49°59' W 002°46'814.2
2018-Jan-06 11:57N 50°01' W 002°35'2012.4
2018-Jan-06 10:21N 50°08' W 002°05'1712.2
2018-Jan-06 08:59N 50°13' W 001°40'4716.6
2018-Jan-06 06:08N 50°25' W 000°29'218.0
2018-Jan-06 06:01N 50°26' W 000°25'918.0
2018-Jan-06 05:30N 50°29' W 000°12'917.5
2018-Jan-06 05:00N 50°31' E 000°01'917.4
2018-Jan-06 04:30N 50°34' E 000°14'817.0
2018-Jan-06 04:00N 50°36' E 000°27'816.3
2018-Jan-06 03:30N 50°40' E 000°39'815.9
2018-Jan-06 03:00N 50°44' E 000°49'815.1
2018-Jan-06 02:30N 50°48' E 000°60'714.6
2018-Jan-06 01:59N 50°52' E 001°10'714.4
2018-Jan-06 01:30N 50°56' E 001°19'714.6
2018-Jan-06 01:00N 51°02' E 001°26'815.9
2018-Jan-06 00:30N 51°07' E 001°35'817.0
2018-Jan-06 00:00N 51°13' E 001°44'918.3
2018-Jan-05 23:31N 51°21' E 001°53'815.5
2018-Jan-05 23:01N 51°24' E 002°04'815.6
2018-Jan-05 22:31N 51°20' E 002°15'917.0
2018-Jan-05 22:00N 51°22' E 002°28'815.8
2018-Jan-05 21:29N 51°23' E 002°41'4 9.1
2018-Jan-05 21:00N 51°22' E 002°48'714.5
2018-Jan-05 20:30N 51°24' E 002°59'715.2
2018-Jan-05 20:00N 51°24' E 003°11'816.5
2018-Jan-05 19:30N 51°25' E 003°24'510.5
2018-Jan-05 19:01N 51°25' E 003°33'1 1.4
2018-Jan-05 18:30N 51°25' E 003°34'4 8.4
2018-Jan-05 18:00N 51°27' E 003°40'612.9
2018-Jan-05 17:30N 51°22' E 003°47'611.6
2018-Jan-05 17:00N 51°22' E 003°56'5 9.7
2018-Jan-05 16:30N 51°26' E 004°01'5 9.1
2018-Jan-05 16:00N 51°22' E 004°05'4 8.0
2018-Jan-05 15:30N 51°24' E 004°11'4 7.7
2018-Jan-05 15:00N 51°21' E 004°15'4 7.5
2018-Jan-05 14:30N 51°17' E 004°16'1 1.6
2018-Jan-05 14:00N 51°17' E 004°15'0 0.3
2018-Jan-05 13:30N 51°17' E 004°15'1 1.5
2018-Jan-05 13:00N 51°16' E 004°15'0 0.0
2018-Jan-05 12:30N 51°16' E 004°15'0 0.0
2018-Jan-05 12:00N 51°16' E 004°15'0 0.0
2018-Jan-05 11:30N 51°16' E 004°15'0 0.0
2018-Jan-05 11:00N 51°16' E 004°15'0 0.0
2018-Jan-05 10:27N 51°16' E 004°15'0 0.0
2018-Jan-05 10:00N 51°16' E 004°15'0 0.0
2018-Jan-05 09:30N 51°16' E 004°15'0 0.0
2018-Jan-05 08:57N 51°16' E 004°15'0 0.0
2018-Jan-05 08:30N 51°16' E 004°15'0 0.0
2018-Jan-05 08:00N 51°16' E 004°15'0 0.0
2018-Jan-05 07:30N 51°16' E 004°15'0 0.0
2018-Jan-05 07:00N 51°16' E 004°15'0 0.0
2018-Jan-05 06:30N 51°16' E 004°15'0 0.0
2018-Jan-05 05:57N 51°16' E 004°15'0 0.0
2018-Jan-05 05:30N 51°16' E 004°15'0 0.0
2018-Jan-05 05:00N 51°16' E 004°15'0 0.0
2018-Jan-05 04:30N 51°16' E 004°15'0 0.0
2018-Jan-05 04:00N 51°16' E 004°15'0 0.0
2018-Jan-05 03:30N 51°16' E 004°15'0 0.0
2018-Jan-05 03:00N 51°16' E 004°15'0 0.0
2018-Jan-05 02:30N 51°16' E 004°15'0 0.0
2018-Jan-05 01:58N 51°16' E 004°15'0 0.0
2018-Jan-05 01:28N 51°16' E 004°15'0 0.0
2018-Jan-05 00:52N 51°16' E 004°15'0 0.0
2018-Jan-05 00:19N 51°16' E 004°15'0 0.0
2018-Jan-04 23:55N 51°16' E 004°15'0 0.0
2018-Jan-04 23:28N 51°16' E 004°15'0 0.0
2018-Jan-04 22:58N 51°16' E 004°15'0 0.0
2018-Jan-04 22:28N 51°16' E 004°15'0 0.0
2018-Jan-04 21:58N 51°16' E 004°15'0 0.0
2018-Jan-04 21:28N 51°16' E 004°15'0 0.0
2018-Jan-04 20:58N 51°16' E 004°15'0 0.0
2018-Jan-04 20:28N 51°16' E 004°15'0 0.0
2018-Jan-04 19:58N 51°16' E 004°15'0 0.0
2018-Jan-04 19:28N 51°16' E 004°15'0 0.0
2018-Jan-04 18:58N 51°16' E 004°15'0 0.0
2018-Jan-04 18:28N 51°16' E 004°15'0 0.0
2018-Jan-04 17:58N 51°16' E 004°15'0 0.0
2018-Jan-04 17:28N 51°16' E 004°15'0 0.0
2018-Jan-04 16:55N 51°16' E 004°15'0 0.0
2018-Jan-04 16:28N 51°16' E 004°15'0 0.0
2018-Jan-04 15:58N 51°16' E 004°15'0 0.0
2018-Jan-04 15:28N 51°16' E 004°15'0 0.0
2018-Jan-04 14:58N 51°16' E 004°15'0 0.0
2018-Jan-04 14:28N 51°16' E 004°15'0 0.0
2018-Jan-04 13:58N 51°16' E 004°15'0 0.0
2018-Jan-04 13:28N 51°16' E 004°15'0 0.0
2018-Jan-04 12:58N 51°16' E 004°15'0 0.0
2018-Jan-04 12:28N 51°16' E 004°15'0 0.0
2018-Jan-04 11:58N 51°16' E 004°15'0 0.0
2018-Jan-04 11:28N 51°16' E 004°15'0 0.0
2018-Jan-04 10:58N 51°16' E 004°15'0 0.0
2018-Jan-04 10:28N 51°16' E 004°15'0 0.0
2018-Jan-04 09:58N 51°16' E 004°15'0 0.0
2018-Jan-04 09:28N 51°16' E 004°15'0 0.0
2018-Jan-04 08:58N 51°16' E 004°15'0 0.0
2018-Jan-04 08:28N 51°16' E 004°15'0 0.0
2018-Jan-04 07:58N 51°16' E 004°15'0 0.0
2018-Jan-04 07:28N 51°16' E 004°15'0 0.0
2018-Jan-04 06:55N 51°16' E 004°15'0 0.0
2018-Jan-04 06:28N 51°16' E 004°15'0 0.0
2018-Jan-04 05:58N 51°16' E 004°15'0 0.0
2018-Jan-04 05:28N 51°16' E 004°15'0 0.0
2018-Jan-04 04:58N 51°16' E 004°15'0 0.0
2018-Jan-04 04:28N 51°16' E 004°15'0 0.0
2018-Jan-04 03:58N 51°16' E 004°15'0 0.0
2018-Jan-04 03:28N 51°16' E 004°15'0 0.0
2018-Jan-04 02:58N 51°16' E 004°15'0 0.0
2018-Jan-04 02:28N 51°16' E 004°15'0 0.0
2018-Jan-04 01:58N 51°16' E 004°15'0 0.0
2018-Jan-04 01:28N 51°16' E 004°15'0 0.0
2018-Jan-04 00:58N 51°16' E 004°15'0 0.0
2018-Jan-04 00:25N 51°16' E 004°15'0 0.0
2018-Jan-03 23:55N 51°16' E 004°15'0 0.0
2018-Jan-03 23:28N 51°16' E 004°15'0 0.0
2018-Jan-03 22:58N 51°16' E 004°15'0 0.0
2018-Jan-03 22:28N 51°16' E 004°15'0 0.0
2018-Jan-03 21:58N 51°16' E 004°15'0 0.0
2018-Jan-03 21:28N 51°16' E 004°15'0 0.0
2018-Jan-03 20:58N 51°16' E 004°15'0 0.0
2018-Jan-03 20:28N 51°16' E 004°15'0 0.0
2018-Jan-03 19:58N 51°16' E 004°15'0 0.0
2018-Jan-03 19:22N 51°16' E 004°15'0 0.0
2018-Jan-03 18:58N 51°16' E 004°15'0 0.0
2018-Jan-03 18:25N 51°16' E 004°15'0 0.0
2018-Jan-03 17:55N 51°16' E 004°15'0 0.0
2018-Jan-03 17:28N 51°16' E 004°15'0 0.0
2018-Jan-03 16:58N 51°16' E 004°15'0 0.0
2018-Jan-03 16:25N 51°16' E 004°15'0 0.0
2018-Jan-03 15:58N 51°16' E 004°15'0 0.0
2018-Jan-03 15:25N 51°16' E 004°15'0 0.0
2018-Jan-03 14:58N 51°16' E 004°15'0 0.0
2018-Jan-03 14:25N 51°16' E 004°15'0 0.0
2018-Jan-03 13:58N 51°16' E 004°15'0 0.0
2018-Jan-03 13:25N 51°16' E 004°15'0 0.0
2018-Jan-03 12:55N 51°16' E 004°15'0 0.0
2018-Jan-03 12:28N 51°16' E 004°15'0 0.0
2018-Jan-03 11:52N 51°16' E 004°15'0 0.0
2018-Jan-03 11:28N 51°16' E 004°15'0 0.0
2018-Jan-03 10:58N 51°16' E 004°15'0 0.0
2018-Jan-03 10:28N 51°16' E 004°15'0 0.0
2018-Jan-03 09:55N 51°16' E 004°15'0 0.0
2018-Jan-03 09:25N 51°16' E 004°15'0 0.0
2018-Jan-03 08:55N 51°16' E 004°15'0 0.0
2018-Jan-03 08:19N 51°16' E 004°15'0 0.0
2018-Jan-03 07:55N 51°16' E 004°15'0 0.0
2018-Jan-03 07:28N 51°16' E 004°15'0 0.0
2018-Jan-03 06:58N 51°16' E 004°15'0 0.0
2018-Jan-03 06:28N 51°16' E 004°15'0 0.0
2018-Jan-03 05:58N 51°16' E 004°15'0 0.0
2018-Jan-03 05:28N 51°16' E 004°15'0 0.0
2018-Jan-03 04:58N 51°16' E 004°15'0 0.0
2018-Jan-03 04:16N 51°16' E 004°15'0 0.0
2018-Jan-03 03:58N 51°16' E 004°15'0 0.0
2018-Jan-03 03:28N 51°16' E 004°15'0 0.0
2018-Jan-03 02:58N 51°16' E 004°15'0 0.0
2018-Jan-03 02:28N 51°16' E 004°15'0 0.0
2018-Jan-03 01:49N 51°16' E 004°15'0 0.0
2018-Jan-03 01:25N 51°16' E 004°15'0 0.0
2018-Jan-03 00:55N 51°16' E 004°15'0 0.0
2018-Jan-03 00:28N 51°16' E 004°15'0 0.0
2018-Jan-02 23:58N 51°16' E 004°15'0 0.0
2018-Jan-02 23:28N 51°16' E 004°15'0 0.0
2018-Jan-02 22:49N 51°16' E 004°15'0 0.0
2018-Jan-02 22:28N 51°16' E 004°15'0 0.0
2018-Jan-02 21:58N 51°16' E 004°15'0 0.0
2018-Jan-02 21:25N 51°16' E 004°15'0 0.0
2018-Jan-02 20:55N 51°16' E 004°15'0 0.0
2018-Jan-02 20:28N 51°16' E 004°15'0 0.0
2018-Jan-02 19:58N 51°16' E 004°15'0 0.0
2018-Jan-02 19:28N 51°16' E 004°15'0 0.0
2018-Jan-02 18:52N 51°16' E 004°15'0 0.0
2018-Jan-02 18:28N 51°16' E 004°15'0 0.0
2018-Jan-02 17:58N 51°16' E 004°15'0 0.0
2018-Jan-02 17:28N 51°16' E 004°15'0 0.0
2018-Jan-02 16:58N 51°16' E 004°15'0 0.0
2018-Jan-02 16:25N 51°16' E 004°15'0 0.0
2018-Jan-02 15:58N 51°16' E 004°15'0 0.0
2018-Jan-02 15:25N 51°16' E 004°15'0 0.0
2018-Jan-02 14:55N 51°16' E 004°15'0 0.0
2018-Jan-02 14:22N 51°16' E 004°15'0 0.0
2018-Jan-02 13:52N 51°16' E 004°15'0 0.0
2018-Jan-02 13:22N 51°16' E 004°15'0 0.0
2018-Jan-02 12:52N 51°16' E 004°15'0 0.0
2018-Jan-02 12:28N 51°16' E 004°15'0 0.0
2018-Jan-02 11:58N 51°16' E 004°15'0 0.0
2018-Jan-02 11:28N 51°16' E 004°15'0 0.0
2018-Jan-02 10:58N 51°16' E 004°15'0 0.0
2018-Jan-02 10:19N 51°16' E 004°15'0 0.0
2018-Jan-02 09:58N 51°16' E 004°15'0 0.0
2018-Jan-02 09:28N 51°16' E 004°15'0 0.0
2018-Jan-02 08:19N 51°16' E 004°15'0 0.0
2018-Jan-02 07:58N 51°16' E 004°15'0 0.0
2018-Jan-02 07:22N 51°16' E 004°15'0 0.0
2018-Jan-02 06:52N 51°16' E 004°15'0 0.0
2018-Jan-02 06:28N 51°16' E 004°15'0 0.0
2018-Jan-02 05:58N 51°16' E 004°15'0 0.0
2018-Jan-02 05:28N 51°16' E 004°15'0 0.0
2018-Jan-02 04:28N 51°16' E 004°15'0 0.0
2018-Jan-02 03:58N 51°16' E 004°15'0 0.0
2018-Jan-02 03:25N 51°16' E 004°15'0 0.0
2018-Jan-02 02:58N 51°16' E 004°15'0 0.0
2018-Jan-02 02:28N 51°16' E 004°15'0 0.0
2018-Jan-02 01:52N 51°16' E 004°15'0 0.0
2018-Jan-02 01:28N 51°16' E 004°15'0 0.0
2018-Jan-02 00:58N 51°16' E 004°15'0 0.0
2018-Jan-02 00:25N 51°16' E 004°15'0 0.0
2018-Jan-01 23:58N 51°16' E 004°15'0 0.0
2018-Jan-01 23:22N 51°16' E 004°15'0 0.0
2018-Jan-01 22:58N 51°16' E 004°15'0 0.0
2018-Jan-01 22:25N 51°16' E 004°15'0 0.0
2018-Jan-01 21:55N 51°16' E 004°15'0 0.0
2018-Jan-01 21:28N 51°16' E 004°15'0 0.0
2018-Jan-01 20:58N 51°16' E 004°15'0 0.0
2018-Jan-01 20:28N 51°16' E 004°15'0 0.0
2018-Jan-01 19:55N 51°16' E 004°15'0 0.0
2018-Jan-01 19:28N 51°16' E 004°15'0 0.0
2018-Jan-01 18:58N 51°16' E 004°15'0 0.0
2018-Jan-01 18:28N 51°16' E 004°15'0 0.0
2018-Jan-01 17:58N 51°16' E 004°15'0 0.0
2018-Jan-01 17:28N 51°16' E 004°15'0 0.0
2018-Jan-01 14:55N 51°16' E 004°15'0 0.0
2018-Jan-01 14:28N 51°16' E 004°15'0 0.0
2018-Jan-01 13:58N 51°16' E 004°15'0 0.0
2018-Jan-01 13:25N 51°16' E 004°15'0 0.0
2018-Jan-01 12:58N 51°16' E 004°15'0 0.0
2018-Jan-01 11:58N 51°16' E 004°15'0 0.0
2018-Jan-01 11:28N 51°16' E 004°15'0 0.0
2018-Jan-01 10:58N 51°16' E 004°15'0 0.0
2018-Jan-01 10:25N 51°16' E 004°15'0 0.0
2018-Jan-01 09:58N 51°16' E 004°15'0 0.0
2018-Jan-01 09:28N 51°16' E 004°15'0 0.0
2018-Jan-01 08:28N 51°16' E 004°15'0 0.0
2018-Jan-01 07:58N 51°16' E 004°15'0 0.0
2018-Jan-01 07:28N 51°16' E 004°15'0 0.0
2018-Jan-01 06:55N 51°16' E 004°15'0 0.0
2018-Jan-01 05:58N 51°16' E 004°15'0 0.0
2018-Jan-01 05:28N 51°16' E 004°15'0 0.0
2018-Jan-01 04:58N 51°16' E 004°15'0 0.0
2018-Jan-01 03:49N 51°16' E 004°15'0 0.0
2018-Jan-01 03:28N 51°16' E 004°15'0 0.0
2018-Jan-01 02:58N 51°16' E 004°15'0 0.0
2018-Jan-01 02:22N 51°16' E 004°15'0 0.0
2018-Jan-01 01:58N 51°16' E 004°15'0 0.0
2018-Jan-01 01:28N 51°16' E 004°15'0 0.0
2018-Jan-01 00:28N 51°16' E 004°15'0 0.0
2017-Dec-31 20:58N 51°16' E 004°15'0 0.0
2017-Dec-31 20:28N 51°16' E 004°15'0 0.0
2017-Dec-31 19:58N 51°16' E 004°15'0 0.0
2017-Dec-31 19:28N 51°16' E 004°15'0 0.0
2017-Dec-31 18:55N 51°16' E 004°15'0 0.0
2017-Dec-31 18:25N 51°16' E 004°15'0 0.0
2017-Dec-31 17:58N 51°16' E 004°15'0 0.0
2017-Dec-31 17:31N 51°16' E 004°15'1 2.0
2017-Dec-31 17:01N 51°16' E 004°16'0 0.6
2017-Dec-31 16:30N 51°16' E 004°17'0 0.6
2017-Dec-31 16:00N 51°16' E 004°17'2 3.9
2017-Dec-31 15:30N 51°17' E 004°19'4 8.8
2017-Dec-31 15:00N 51°21' E 004°15'4 7.4
2017-Dec-31 14:30N 51°23' E 004°10'5 9.8
2017-Dec-31 14:00N 51°23' E 004°02'3 6.2
2017-Dec-31 13:30N 51°24' E 003°58'611.8
2017-Dec-31 13:00N 51°21' E 003°50'611.9
2017-Dec-31 12:30N 51°24' E 003°43'5 9.8
2017-Dec-31 12:00N 51°26' E 003°35'510.6
2017-Dec-31 11:30N 51°25' E 003°27'713.6
2017-Dec-31 11:01N 51°25' E 003°16'713.7
2017-Dec-31 10:30N 51°24' E 003°05'713.3
2017-Dec-31 10:00N 51°22' E 002°55'713.2
2017-Dec-31 09:27N 51°22' E 002°43'3 7.2
2017-Dec-31 08:59N 51°22' E 002°37'  
Track history (hours):
 
Tides and Currents Weather Stations Pressure Air Temp Water Temp Dewpoint Dewpoint Depression Visibility Wind Speed Wind Dir Waves Ship Positions

Costa Rican Star

Last reported at 2018-Jan-10 08:33 UTC. Time now 2018-Jan-20 15:26 UTC.
Position N 27°34' W 015°16'.
Warning: this ship's position is 10 days out of date.

Length 185 m; draft 7.9 m.

Type: Cargo ship. MMSI: 636013073.

Date/timePositionNaut miles runAvg speedWind from/ knotsBaromVisibWave heightAir tempDewpointWater temp
2018-Jan-10 08:33N 27°34' W 015°16'217.0
2018-Jan-10 08:27N 27°35' W 015°15'716.7
2018-Jan-10 08:00N 27°42' W 015°12'816.5
2018-Jan-10 07:31N 27°50' W 015°09'816.9
2018-Jan-10 07:01N 27°58' W 015°05'816.9
2018-Jan-10 06:31N 28°06' W 015°02'816.6
2018-Jan-10 06:01N 28°13' W 014°58'816.4
2018-Jan-10 05:31N 28°21' W 014°55'816.6
2018-Jan-10 05:00N 28°29' W 014°52'816.8
2018-Jan-10 04:30N 28°37' W 014°50'816.8
2018-Jan-10 04:00N 28°45' W 014°47'816.8
2018-Jan-10 03:30N 28°53' W 014°45'  
2018-Jan-06 14:39N 49°43' W 003°34'317.3
2018-Jan-06 14:30N 49°44' W 003°31'917.2
2018-Jan-06 14:00N 49°48' W 003°19'816.6
2018-Jan-06 13:30N 49°53' W 003°08'815.9
2018-Jan-06 13:00N 49°57' W 002°57'815.0
2018-Jan-06 12:30N 49°59' W 002°46'814.2
2018-Jan-06 11:57N 50°01' W 002°35'2012.4
2018-Jan-06 10:21N 50°08' W 002°05'1712.2
2018-Jan-06 08:59N 50°13' W 001°40'4716.6
2018-Jan-06 06:08N 50°25' W 000°29'218.0
2018-Jan-06 06:01N 50°26' W 000°25'918.0
2018-Jan-06 05:30N 50°29' W 000°12'917.5
2018-Jan-06 05:00N 50°31' E 000°01'917.4
2018-Jan-06 04:30N 50°34' E 000°14'817.0
2018-Jan-06 04:00N 50°36' E 000°27'816.3
2018-Jan-06 03:30N 50°40' E 000°39'815.9
2018-Jan-06 03:00N 50°44' E 000°49'815.1
2018-Jan-06 02:30N 50°48' E 000°60'714.6
2018-Jan-06 01:59N 50°52' E 001°10'714.4
2018-Jan-06 01:30N 50°56' E 001°19'714.6
2018-Jan-06 01:00N 51°02' E 001°26'815.9
2018-Jan-06 00:30N 51°07' E 001°35'817.0
2018-Jan-06 00:00N 51°13' E 001°44'918.3
2018-Jan-05 23:31N 51°21' E 001°53'815.5
2018-Jan-05 23:01N 51°24' E 002°04'815.6
2018-Jan-05 22:31N 51°20' E 002°15'917.0
2018-Jan-05 22:00N 51°22' E 002°28'815.8
2018-Jan-05 21:29N 51°23' E 002°41'4 9.1
2018-Jan-05 21:00N 51°22' E 002°48'714.5
2018-Jan-05 20:30N 51°24' E 002°59'715.2
2018-Jan-05 20:00N 51°24' E 003°11'816.5
2018-Jan-05 19:30N 51°25' E 003°24'510.5
2018-Jan-05 19:01N 51°25' E 003°33'1 1.4
2018-Jan-05 18:30N 51°25' E 003°34'4 8.4
2018-Jan-05 18:00N 51°27' E 003°40'612.9
2018-Jan-05 17:30N 51°22' E 003°47'611.6
2018-Jan-05 17:00N 51°22' E 003°56'5 9.7
2018-Jan-05 16:30N 51°26' E 004°01'5 9.1
2018-Jan-05 16:00N 51°22' E 004°05'4 8.0
2018-Jan-05 15:30N 51°24' E 004°11'4 7.7
2018-Jan-05 15:00N 51°21' E 004°15'4 7.5
2018-Jan-05 14:30N 51°17' E 004°16'1 1.6
2018-Jan-05 14:00N 51°17' E 004°15'0 0.3
2018-Jan-05 13:30N 51°17' E 004°15'1 1.5
2018-Jan-05 13:00N 51°16' E 004°15'0 0.0
2018-Jan-05 12:30N 51°16' E 004°15'0 0.0
2018-Jan-05 12:00N 51°16' E 004°15'0 0.0
2018-Jan-05 11:30N 51°16' E 004°15'0 0.0
2018-Jan-05 11:00N 51°16' E 004°15'0 0.0
2018-Jan-05 10:27N 51°16' E 004°15'0 0.0
2018-Jan-05 10:00N 51°16' E 004°15'0 0.0
2018-Jan-05 09:30N 51°16' E 004°15'0 0.0
2018-Jan-05 08:57N 51°16' E 004°15'0 0.0
2018-Jan-05 08:30N 51°16' E 004°15'0 0.0
2018-Jan-05 08:00N 51°16' E 004°15'0 0.0
2018-Jan-05 07:30N 51°16' E 004°15'0 0.0
2018-Jan-05 07:00N 51°16' E 004°15'0 0.0
2018-Jan-05 06:30N 51°16' E 004°15'0 0.0
2018-Jan-05 05:57N 51°16' E 004°15'0 0.0
2018-Jan-05 05:30N 51°16' E 004°15'0 0.0
2018-Jan-05 05:00N 51°16' E 004°15'0 0.0
2018-Jan-05 04:30N 51°16' E 004°15'0 0.0
2018-Jan-05 04:00N 51°16' E 004°15'0 0.0
2018-Jan-05 03:30N 51°16' E 004°15'0 0.0
2018-Jan-05 03:00N 51°16' E 004°15'0 0.0
2018-Jan-05 02:30N 51°16' E 004°15'0 0.0
2018-Jan-05 01:58N 51°16' E 004°15'0 0.0
2018-Jan-05 01:28N 51°16' E 004°15'0 0.0
2018-Jan-05 00:52N 51°16' E 004°15'0 0.0
2018-Jan-05 00:19N 51°16' E 004°15'0 0.0
2018-Jan-04 23:55N 51°16' E 004°15'0 0.0
2018-Jan-04 23:28N 51°16' E 004°15'0 0.0
2018-Jan-04 22:58N 51°16' E 004°15'0 0.0
2018-Jan-04 22:28N 51°16' E 004°15'0 0.0
2018-Jan-04 21:58N 51°16' E 004°15'0 0.0
2018-Jan-04 21:28N 51°16' E 004°15'0 0.0
2018-Jan-04 20:58N 51°16' E 004°15'0 0.0
2018-Jan-04 20:28N 51°16' E 004°15'0 0.0
2018-Jan-04 19:58N 51°16' E 004°15'0 0.0
2018-Jan-04 19:28N 51°16' E 004°15'0 0.0
2018-Jan-04 18:58N 51°16' E 004°15'0 0.0
2018-Jan-04 18:28N 51°16' E 004°15'0 0.0
2018-Jan-04 17:58N 51°16' E 004°15'0 0.0
2018-Jan-04 17:28N 51°16' E 004°15'0 0.0
2018-Jan-04 16:55N 51°16' E 004°15'0 0.0
2018-Jan-04 16:28N 51°16' E 004°15'0 0.0
2018-Jan-04 15:58N 51°16' E 004°15'0 0.0
2018-Jan-04 15:28N 51°16' E 004°15'0 0.0
2018-Jan-04 14:58N 51°16' E 004°15'0 0.0
2018-Jan-04 14:28N 51°16' E 004°15'0 0.0
2018-Jan-04 13:58N 51°16' E 004°15'0 0.0
2018-Jan-04 13:28N 51°16' E 004°15'0 0.0
2018-Jan-04 12:58N 51°16' E 004°15'0 0.0
2018-Jan-04 12:28N 51°16' E 004°15'0 0.0
2018-Jan-04 11:58N 51°16' E 004°15'0 0.0
2018-Jan-04 11:28N 51°16' E 004°15'0 0.0
2018-Jan-04 10:58N 51°16' E 004°15'0 0.0
2018-Jan-04 10:28N 51°16' E 004°15'0 0.0
2018-Jan-04 09:58N 51°16' E 004°15'0 0.0
2018-Jan-04 09:28N 51°16' E 004°15'0 0.0
2018-Jan-04 08:58N 51°16' E 004°15'0 0.0
2018-Jan-04 08:28N 51°16' E 004°15'0 0.0
2018-Jan-04 07:58N 51°16' E 004°15'0 0.0
2018-Jan-04 07:28N 51°16' E 004°15'0 0.0
2018-Jan-04 06:55N 51°16' E 004°15'0 0.0
2018-Jan-04 06:28N 51°16' E 004°15'0 0.0
2018-Jan-04 05:58N 51°16' E 004°15'0 0.0
2018-Jan-04 05:28N 51°16' E 004°15'0 0.0
2018-Jan-04 04:58N 51°16' E 004°15'0 0.0
2018-Jan-04 04:28N 51°16' E 004°15'0 0.0
2018-Jan-04 03:58N 51°16' E 004°15'0 0.0
2018-Jan-04 03:28N 51°16' E 004°15'0 0.0
2018-Jan-04 02:58N 51°16' E 004°15'0 0.0
2018-Jan-04 02:28N 51°16' E 004°15'0 0.0
2018-Jan-04 01:58N 51°16' E 004°15'0 0.0
2018-Jan-04 01:28N 51°16' E 004°15'0 0.0
2018-Jan-04 00:58N 51°16' E 004°15'0 0.0
2018-Jan-04 00:25N 51°16' E 004°15'0 0.0
2018-Jan-03 23:55N 51°16' E 004°15'0 0.0
2018-Jan-03 23:28N 51°16' E 004°15'0 0.0
2018-Jan-03 22:58N 51°16' E 004°15'0 0.0
2018-Jan-03 22:28N 51°16' E 004°15'0 0.0
2018-Jan-03 21:58N 51°16' E 004°15'0 0.0
2018-Jan-03 21:28N 51°16' E 004°15'0 0.0
2018-Jan-03 20:58N 51°16' E 004°15'0 0.0
2018-Jan-03 20:28N 51°16' E 004°15'0 0.0
2018-Jan-03 19:58N 51°16' E 004°15'0 0.0
2018-Jan-03 19:22N 51°16' E 004°15'0 0.0
2018-Jan-03 18:58N 51°16' E 004°15'0 0.0
2018-Jan-03 18:25N 51°16' E 004°15'0 0.0
2018-Jan-03 17:55N 51°16' E 004°15'0 0.0
2018-Jan-03 17:28N 51°16' E 004°15'0 0.0
2018-Jan-03 16:58N 51°16' E 004°15'0 0.0
2018-Jan-03 16:25N 51°16' E 004°15'0 0.0
2018-Jan-03 15:58N 51°16' E 004°15'0 0.0
2018-Jan-03 15:25N 51°16' E 004°15'0 0.0
2018-Jan-03 14:58N 51°16' E 004°15'0 0.0
2018-Jan-03 14:25N 51°16' E 004°15'0 0.0
2018-Jan-03 13:58N 51°16' E 004°15'0 0.0
2018-Jan-03 13:25N 51°16' E 004°15'0 0.0
2018-Jan-03 12:55N 51°16' E 004°15'0 0.0
2018-Jan-03 12:28N 51°16' E 004°15'0 0.0
2018-Jan-03 11:52N 51°16' E 004°15'0 0.0
2018-Jan-03 11:28N 51°16' E 004°15'0 0.0
2018-Jan-03 10:58N 51°16' E 004°15'0 0.0
2018-Jan-03 10:28N 51°16' E 004°15'0 0.0
2018-Jan-03 09:55N 51°16' E 004°15'0 0.0
2018-Jan-03 09:25N 51°16' E 004°15'0 0.0
2018-Jan-03 08:55N 51°16' E 004°15'0 0.0
2018-Jan-03 08:19N 51°16' E 004°15'0 0.0
2018-Jan-03 07:55N 51°16' E 004°15'0 0.0
2018-Jan-03 07:28N 51°16' E 004°15'0 0.0
2018-Jan-03 06:58N 51°16' E 004°15'0 0.0
2018-Jan-03 06:28N 51°16' E 004°15'0 0.0
2018-Jan-03 05:58N 51°16' E 004°15'0 0.0
2018-Jan-03 05:28N 51°16' E 004°15'0 0.0
2018-Jan-03 04:58N 51°16' E 004°15'0 0.0
2018-Jan-03 04:16N 51°16' E 004°15'0 0.0
2018-Jan-03 03:58N 51°16' E 004°15'0 0.0
2018-Jan-03 03:28N 51°16' E 004°15'0 0.0
2018-Jan-03 02:58N 51°16' E 004°15'0 0.0
2018-Jan-03 02:28N 51°16' E 004°15'0 0.0
2018-Jan-03 01:49N 51°16' E 004°15'0 0.0
2018-Jan-03 01:25N 51°16' E 004°15'0 0.0
2018-Jan-03 00:55N 51°16' E 004°15'0 0.0
2018-Jan-03 00:28N 51°16' E 004°15'0 0.0
2018-Jan-02 23:58N 51°16' E 004°15'0 0.0
2018-Jan-02 23:28N 51°16' E 004°15'0 0.0
2018-Jan-02 22:49N 51°16' E 004°15'0 0.0
2018-Jan-02 22:28N 51°16' E 004°15'0 0.0
2018-Jan-02 21:58N 51°16' E 004°15'0 0.0
2018-Jan-02 21:25N 51°16' E 004°15'0 0.0
2018-Jan-02 20:55N 51°16' E 004°15'0 0.0
2018-Jan-02 20:28N 51°16' E 004°15'0 0.0
2018-Jan-02 19:58N 51°16' E 004°15'0 0.0
2018-Jan-02 19:28N 51°16' E 004°15'0 0.0
2018-Jan-02 18:52N 51°16' E 004°15'0 0.0
2018-Jan-02 18:28N 51°16' E 004°15'0 0.0
2018-Jan-02 17:58N 51°16' E 004°15'0 0.0
2018-Jan-02 17:28N 51°16' E 004°15'0 0.0
2018-Jan-02 16:58N 51°16' E 004°15'0 0.0
2018-Jan-02 16:25N 51°16' E 004°15'0 0.0
2018-Jan-02 15:58N 51°16' E 004°15'0 0.0
2018-Jan-02 15:25N 51°16' E 004°15'0 0.0
2018-Jan-02 14:55N 51°16' E 004°15'0 0.0
2018-Jan-02 14:22N 51°16' E 004°15'0 0.0
2018-Jan-02 13:52N 51°16' E 004°15'0 0.0
2018-Jan-02 13:22N 51°16' E 004°15'0 0.0
2018-Jan-02 12:52N 51°16' E 004°15'0 0.0
2018-Jan-02 12:28N 51°16' E 004°15'0 0.0
2018-Jan-02 11:58N 51°16' E 004°15'0 0.0
2018-Jan-02 11:28N 51°16' E 004°15'0 0.0
2018-Jan-02 10:58N 51°16' E 004°15'0 0.0
2018-Jan-02 10:19N 51°16' E 004°15'0 0.0
2018-Jan-02 09:58N 51°16' E 004°15'0 0.0
2018-Jan-02 09:28N 51°16' E 004°15'0 0.0
2018-Jan-02 08:19N 51°16' E 004°15'0 0.0
2018-Jan-02 07:58N 51°16' E 004°15'0 0.0
2018-Jan-02 07:22N 51°16' E 004°15'0 0.0
2018-Jan-02 06:52N 51°16' E 004°15'0 0.0
2018-Jan-02 06:28N 51°16' E 004°15'0 0.0
2018-Jan-02 05:58N 51°16' E 004°15'0 0.0
2018-Jan-02 05:28N 51°16' E 004°15'0 0.0
2018-Jan-02 04:28N 51°16' E 004°15'0 0.0
2018-Jan-02 03:58N 51°16' E 004°15'0 0.0
2018-Jan-02 03:25N 51°16' E 004°15'0 0.0
2018-Jan-02 02:58N 51°16' E 004°15'0 0.0
2018-Jan-02 02:28N 51°16' E 004°15'0 0.0
2018-Jan-02 01:52N 51°16' E 004°15'0 0.0
2018-Jan-02 01:28N 51°16' E 004°15'0 0.0
2018-Jan-02 00:58N 51°16' E 004°15'0 0.0
2018-Jan-02 00:25N 51°16' E 004°15'0 0.0
2018-Jan-01 23:58N 51°16' E 004°15'0 0.0
2018-Jan-01 23:22N 51°16' E 004°15'0 0.0
2018-Jan-01 22:58N 51°16' E 004°15'0 0.0
2018-Jan-01 22:25N 51°16' E 004°15'0 0.0
2018-Jan-01 21:55N 51°16' E 004°15'0 0.0
2018-Jan-01 21:28N 51°16' E 004°15'0 0.0
2018-Jan-01 20:58N 51°16' E 004°15'0 0.0
2018-Jan-01 20:28N 51°16' E 004°15'0 0.0
2018-Jan-01 19:55N 51°16' E 004°15'0 0.0
2018-Jan-01 19:28N 51°16' E 004°15'0 0.0
2018-Jan-01 18:58N 51°16' E 004°15'0 0.0
2018-Jan-01 18:28N 51°16' E 004°15'0 0.0
2018-Jan-01 17:58N 51°16' E 004°15'0 0.0
2018-Jan-01 17:28N 51°16' E 004°15'0 0.0
2018-Jan-01 14:55N 51°16' E 004°15'0 0.0
2018-Jan-01 14:28N 51°16' E 004°15'0 0.0
2018-Jan-01 13:58N 51°16' E 004°15'0 0.0
2018-Jan-01 13:25N 51°16' E 004°15'0 0.0
2018-Jan-01 12:58N 51°16' E 004°15'0 0.0
2018-Jan-01 11:58N 51°16' E 004°15'0 0.0
2018-Jan-01 11:28N 51°16' E 004°15'0 0.0
2018-Jan-01 10:58N 51°16' E 004°15'0 0.0
2018-Jan-01 10:25N 51°16' E 004°15'0 0.0
2018-Jan-01 09:58N 51°16' E 004°15'0 0.0
2018-Jan-01 09:28N 51°16' E 004°15'0 0.0
2018-Jan-01 08:28N 51°16' E 004°15'0 0.0
2018-Jan-01 07:58N 51°16' E 004°15'0 0.0
2018-Jan-01 07:28N 51°16' E 004°15'0 0.0
2018-Jan-01 06:55N 51°16' E 004°15'0 0.0
2018-Jan-01 05:58N 51°16' E 004°15'0 0.0
2018-Jan-01 05:28N 51°16' E 004°15'0 0.0
2018-Jan-01 04:58N 51°16' E 004°15'0 0.0
2018-Jan-01 03:49N 51°16' E 004°15'0 0.0
2018-Jan-01 03:28N 51°16' E 004°15'0 0.0
2018-Jan-01 02:58N 51°16' E 004°15'0 0.0
2018-Jan-01 02:22N 51°16' E 004°15'0 0.0
2018-Jan-01 01:58N 51°16' E 004°15'0 0.0
2018-Jan-01 01:28N 51°16' E 004°15'0 0.0
2018-Jan-01 00:28N 51°16' E 004°15'0 0.0
2017-Dec-31 20:58N 51°16' E 004°15'0 0.0
2017-Dec-31 20:28N 51°16' E 004°15'0 0.0
2017-Dec-31 19:58N 51°16' E 004°15'0 0.0
2017-Dec-31 19:28N 51°16' E 004°15'0 0.0
2017-Dec-31 18:55N 51°16' E 004°15'0 0.0
2017-Dec-31 18:25N 51°16' E 004°15'0 0.0
2017-Dec-31 17:58N 51°16' E 004°15'0 0.0
2017-Dec-31 17:31N 51°16' E 004°15'1 2.0
2017-Dec-31 17:01N 51°16' E 004°16'0 0.6
2017-Dec-31 16:30N 51°16' E 004°17'0 0.6
2017-Dec-31 16:00N 51°16' E 004°17'2 3.9
2017-Dec-31 15:30N 51°17' E 004°19'4 8.8
2017-Dec-31 15:00N 51°21' E 004°15'4 7.4
2017-Dec-31 14:30N 51°23' E 004°10'5 9.8
2017-Dec-31 14:00N 51°23' E 004°02'3 6.2
2017-Dec-31 13:30N 51°24' E 003°58'611.8
2017-Dec-31 13:00N 51°21' E 003°50'611.9
2017-Dec-31 12:30N 51°24' E 003°43'5 9.8
2017-Dec-31 12:00N 51°26' E 003°35'510.6
2017-Dec-31 11:30N 51°25' E 003°27'713.6
2017-Dec-31 11:01N 51°25' E 003°16'713.7
2017-Dec-31 10:30N 51°24' E 003°05'713.3
2017-Dec-31 10:00N 51°22' E 002°55'713.2
2017-Dec-31 09:27N 51°22' E 002°43'3 7.2
2017-Dec-31 08:59N 51°22' E 002°37'  

Dump ship's entire track history